createdAt,value
2018-03-04T00:01:18.824Z,0.80
2018-03-04T00:03:45.976Z,0.90
2018-03-04T00:06:13.059Z,0.90
2018-03-04T00:08:40.098Z,1.00
2018-03-04T00:11:06.525Z,0.90
2018-03-04T00:13:32.853Z,1.00
2018-03-04T00:15:59.156Z,1.10
2018-03-04T00:18:26.312Z,1.20
2018-03-04T00:20:52.785Z,1.20
2018-03-04T00:23:19.190Z,1.20
2018-03-04T00:25:47.240Z,1.40
2018-03-04T00:28:13.721Z,1.40
2018-03-04T00:30:40.768Z,1.30
2018-03-04T00:33:07.084Z,1.20
2018-03-04T00:35:33.420Z,1.20
2018-03-04T00:37:59.964Z,1.30
2018-03-04T00:40:26.349Z,1.30
2018-03-04T00:42:53.541Z,1.40
2018-03-04T00:45:19.877Z,1.40
2018-03-04T00:47:47.015Z,1.40
2018-03-04T00:50:13.409Z,1.40
2018-03-04T00:52:39.939Z,1.40
2018-03-04T00:55:06.382Z,1.40
2018-03-04T00:57:33.124Z,1.40
2018-03-04T01:00:00.312Z,1.20
2018-03-04T01:02:26.678Z,1.20
2018-03-04T01:04:53.132Z,1.20
2018-03-04T01:07:19.465Z,1.10
2018-03-04T01:09:45.873Z,1.10
2018-03-04T01:12:12.203Z,1.10
2018-03-04T01:14:39.240Z,1.10
2018-03-04T01:17:05.547Z,1.20
2018-03-04T01:19:37.689Z,1.00
2018-03-04T01:22:05.040Z,1.00
2018-03-04T01:24:33.092Z,1.00
2018-03-04T01:26:59.659Z,1.00
2018-03-04T01:29:26.440Z,1.10
2018-03-04T01:31:52.777Z,1.10
2018-03-04T01:34:21.052Z,0.90
2018-03-04T01:36:48.216Z,0.90
2018-03-04T01:39:14.527Z,0.90
2018-03-04T01:41:40.876Z,0.90
2018-03-04T01:44:07.220Z,0.90
2018-03-04T01:46:33.533Z,1.00
2018-03-04T01:48:59.964Z,1.00
2018-03-04T01:51:38.682Z,1.00
2018-03-04T01:54:05.767Z,1.10
2018-03-04T01:56:32.064Z,1.10
2018-03-04T01:58:58.451Z,1.00
2018-03-04T02:01:24.805Z,1.10
2018-03-04T02:03:51.147Z,1.10
2018-03-04T02:06:17.528Z,1.00
2018-03-04T02:08:43.883Z,1.10
2018-03-04T02:11:10.239Z,1.10
2018-03-04T02:13:36.535Z,1.10
2018-03-04T02:16:02.950Z,1.10
2018-03-04T02:18:30.870Z,1.10
2018-03-04T02:20:57.388Z,1.10
2018-03-04T02:23:23.932Z,1.10
2018-03-04T02:25:50.288Z,1.10
2018-03-04T02:28:16.789Z,1.30
2018-03-04T02:30:43.144Z,1.40
2018-03-04T02:33:09.701Z,1.30
2018-03-04T02:35:36.056Z,1.50
2018-03-04T02:38:02.458Z,1.40
2018-03-04T02:40:28.835Z,1.30
2018-03-04T02:42:55.889Z,1.20
2018-03-04T02:45:22.228Z,1.10
2018-03-04T02:47:49.510Z,1.00
2018-03-04T02:50:15.854Z,1.00
2018-03-04T02:52:43.424Z,1.00
2018-03-04T02:55:10.638Z,1.00
2018-03-04T02:57:38.551Z,1.00
2018-03-04T03:00:05.651Z,1.20
2018-03-04T03:02:31.953Z,1.20
2018-03-04T03:04:58.250Z,1.20
2018-03-04T03:07:24.612Z,1.10
2018-03-04T03:09:51.000Z,1.10
2018-03-04T03:12:18.134Z,1.10
2018-03-04T03:14:44.678Z,1.10
2018-03-04T03:17:10.983Z,1.10
2018-03-04T03:19:37.293Z,1.10
2018-03-04T03:22:05.965Z,1.20
2018-03-04T03:24:32.305Z,1.10
2018-03-04T03:26:58.704Z,1.10
2018-03-04T03:29:25.436Z,1.20
2018-03-04T03:31:52.598Z,1.20
2018-03-04T03:34:19.725Z,1.20
2018-03-04T03:36:46.116Z,1.20
2018-03-04T03:39:13.510Z,1.30
2018-03-04T03:41:39.809Z,1.30
2018-03-04T03:44:07.306Z,1.30
2018-03-04T03:46:33.617Z,1.20
2018-03-04T03:48:59.929Z,1.20
2018-03-04T03:51:26.476Z,1.20
2018-03-04T03:53:52.926Z,1.20
2018-03-04T03:56:20.285Z,1.20
2018-03-04T03:58:47.011Z,1.20
2018-03-04T04:01:13.392Z,1.20
2018-03-04T04:03:39.756Z,1.30
2018-03-04T04:06:06.162Z,1.20
2018-03-04T04:08:33.464Z,1.20
2018-03-04T04:10:59.768Z,1.30
2018-03-04T04:13:27.264Z,1.20
2018-03-04T04:15:54.564Z,1.20
2018-03-04T04:18:20.940Z,1.20
2018-03-04T04:20:47.398Z,1.20
2018-03-04T04:23:13.720Z,1.20
2018-03-04T04:25:40.114Z,1.20
2018-03-04T04:28:06.461Z,1.20
2018-03-04T04:30:32.799Z,1.30
2018-03-04T04:33:01.146Z,1.30
2018-03-04T04:35:27.601Z,1.30
2018-03-04T04:37:53.935Z,1.20
2018-03-04T04:40:20.391Z,1.20
2018-03-04T04:42:47.259Z,1.20
2018-03-04T04:45:13.569Z,1.20
2018-03-04T04:47:39.885Z,1.20
2018-03-04T04:50:06.222Z,1.20
2018-03-04T04:52:32.570Z,1.20
2018-03-04T04:54:58.976Z,1.10
2018-03-04T04:57:25.331Z,1.10
2018-03-04T04:59:51.749Z,1.20
2018-03-04T05:02:18.112Z,1.20
2018-03-04T05:04:44.952Z,1.20
2018-03-04T05:07:11.311Z,1.20
2018-03-04T05:09:37.622Z,1.10
2018-03-04T05:12:04.008Z,1.10
2018-03-04T05:14:30.472Z,1.10
2018-03-04T05:16:56.816Z,1.00
2018-03-04T05:19:23.314Z,1.10
2018-03-04T05:21:49.676Z,1.20
2018-03-04T05:24:16.249Z,1.20
2018-03-04T05:26:42.708Z,1.00
2018-03-04T05:29:13.650Z,1.10
2018-03-04T05:31:40.016Z,1.10
2018-03-04T05:34:09.531Z,1.10
2018-03-04T05:36:39.160Z,1.10
2018-03-04T05:39:05.512Z,1.00
2018-03-04T05:41:32.654Z,1.10
2018-03-04T05:43:59.104Z,1.00
2018-03-04T05:46:25.420Z,1.20
2018-03-04T05:48:52.108Z,1.20
2018-03-04T05:51:19.369Z,1.20
2018-03-04T05:53:46.506Z,1.00
2018-03-04T05:56:12.942Z,1.10
2018-03-04T05:58:39.236Z,1.30
2018-03-04T06:01:05.538Z,1.30
2018-03-04T06:03:32.061Z,1.30
2018-03-04T06:05:58.566Z,1.30
2018-03-04T06:08:24.871Z,1.20
2018-03-04T06:10:51.208Z,1.30
2018-03-04T06:13:17.595Z,1.40
2018-03-04T06:15:44.637Z,1.40
2018-03-04T06:18:11.828Z,1.30
2018-03-04T06:20:38.125Z,1.30
2018-03-04T06:23:04.424Z,1.20
2018-03-04T06:25:30.826Z,1.10
2018-03-04T06:27:57.957Z,1.20
2018-03-04T06:30:24.279Z,1.10
2018-03-04T06:32:50.720Z,1.20
2018-03-04T06:35:17.869Z,1.30
2018-03-04T06:37:44.173Z,1.30
2018-03-04T06:40:10.623Z,1.30
2018-03-04T06:42:37.927Z,1.30
2018-03-04T06:45:04.224Z,1.40
2018-03-04T06:47:30.722Z,1.50
2018-03-04T06:49:57.059Z,1.50
2018-03-04T06:52:23.478Z,1.60
2018-03-04T06:54:49.811Z,1.90
2018-03-04T06:57:16.219Z,1.90
2018-03-04T06:59:42.548Z,1.80
2018-03-04T07:02:09.905Z,1.80
2018-03-04T07:04:36.268Z,1.90
2018-03-04T07:07:02.620Z,1.70
2018-03-04T07:09:29.359Z,1.80
2018-03-04T07:11:55.664Z,1.90
2018-03-04T07:14:22.712Z,2.00
2018-03-04T07:16:49.084Z,2.00
2018-03-04T07:19:16.536Z,2.00
2018-03-04T07:21:42.904Z,2.10
2018-03-04T07:24:09.344Z,2.20
2018-03-04T07:26:35.642Z,2.40
2018-03-04T07:29:02.019Z,2.40
2018-03-04T07:31:29.268Z,2.60
2018-03-04T07:33:56.444Z,2.80
2018-03-04T07:36:22.756Z,2.70
2018-03-04T07:38:49.122Z,2.60
2018-03-04T07:41:18.815Z,2.60
2018-03-04T07:43:45.116Z,2.40
2018-03-04T07:46:11.517Z,2.50
2018-03-04T07:48:37.817Z,3.10
2018-03-04T07:51:04.302Z,3.20
2018-03-04T07:53:30.833Z,3.20
2018-03-04T07:55:57.348Z,3.40
2018-03-04T07:58:23.900Z,3.30
2018-03-04T08:00:50.268Z,3.10
2018-03-04T08:03:16.593Z,3.00
2018-03-04T08:05:42.879Z,3.00
2018-03-04T08:08:09.316Z,3.10
2018-03-04T08:10:35.617Z,2.80
2018-03-04T08:13:01.937Z,3.00
2018-03-04T08:15:29.457Z,2.80
2018-03-04T08:18:10.209Z,2.80
2018-03-04T08:20:36.598Z,2.80
2018-03-04T08:23:03.950Z,2.70
2018-03-04T08:25:34.715Z,2.80
2018-03-04T08:28:13.382Z,3.00
2018-03-04T08:30:41.752Z,3.40
2018-03-04T08:33:08.873Z,3.60
2018-03-04T08:35:35.345Z,3.60
2018-03-04T08:38:01.668Z,3.70
2018-03-04T08:40:27.992Z,3.70
2018-03-04T08:42:58.915Z,3.70
2018-03-04T08:45:25.264Z,3.60
2018-03-04T08:47:52.288Z,3.90
2018-03-04T08:50:18.611Z,3.90
2018-03-04T08:52:45.168Z,3.80
2018-03-04T08:55:11.596Z,3.80
2018-03-04T08:57:37.963Z,4.00
2018-03-04T09:00:04.272Z,4.00
2018-03-04T09:02:30.686Z,3.90
2018-03-04T09:04:57.927Z,4.40
2018-03-04T09:07:24.250Z,4.40
2018-03-04T09:09:50.704Z,4.20
2018-03-04T09:12:17.124Z,4.10
2018-03-04T09:14:43.467Z,4.40
2018-03-04T09:17:09.822Z,4.40
2018-03-04T09:19:36.336Z,4.50
2018-03-04T09:22:02.667Z,4.50
2018-03-04T09:24:29.728Z,4.60
2018-03-04T09:26:56.825Z,4.60
2018-03-04T09:29:26.284Z,4.60
2018-03-04T09:31:53.576Z,4.20
2018-03-04T09:34:20.798Z,4.10
2018-03-04T09:36:47.093Z,4.10
2018-03-04T09:39:13.464Z,4.30
2018-03-04T09:41:39.979Z,4.50
2018-03-04T09:44:06.306Z,4.60
2018-03-04T09:46:33.336Z,5.40
2018-03-04T09:48:59.703Z,5.30
2018-03-04T09:51:26.736Z,5.50
2018-03-04T09:53:53.193Z,5.40
2018-03-04T09:56:19.515Z,5.60
2018-03-04T09:58:45.864Z,5.40
2018-03-04T10:01:12.216Z,5.30
2018-03-04T10:03:38.836Z,5.50
2018-03-04T10:06:05.125Z,5.90
2018-03-04T10:08:32.451Z,6.20
2018-03-04T10:10:58.883Z,6.30
2018-03-04T10:13:25.221Z,6.30
2018-03-04T10:15:51.517Z,6.30
2018-03-04T10:18:17.840Z,6.40
2018-03-04T10:20:44.252Z,6.20
2018-03-04T10:23:10.616Z,6.00
2018-03-04T10:25:36.935Z,6.00
2018-03-04T10:28:03.248Z,6.00
2018-03-04T10:30:31.369Z,6.10
2018-03-04T10:32:58.045Z,6.10
2018-03-04T10:35:24.606Z,6.20
2018-03-04T10:37:51.706Z,6.50
2018-03-04T10:40:18.142Z,6.40
2018-03-04T10:42:45.172Z,6.40
2018-03-04T10:45:11.489Z,6.40
2018-03-04T10:47:38.612Z,6.40
2018-03-04T10:50:05.676Z,6.40
2018-03-04T10:52:32.037Z,6.40
2018-03-04T10:54:59.428Z,6.50
2018-03-04T10:57:25.750Z,6.10
2018-03-04T10:59:52.065Z,6.00
2018-03-04T11:02:22.572Z,6.40
2018-03-04T11:04:48.904Z,6.50
2018-03-04T11:07:15.285Z,6.30
2018-03-04T11:09:41.725Z,6.20
2018-03-04T11:12:07.983Z,6.50
2018-03-04T11:14:35.095Z,6.90
2018-03-04T11:17:01.531Z,6.90
2018-03-04T11:19:28.052Z,7.00
2018-03-04T11:21:55.080Z,7.30
2018-03-04T11:24:21.398Z,7.30
2018-03-04T11:26:47.688Z,7.30
2018-03-04T11:29:14.760Z,6.90
2018-03-04T11:31:41.218Z,6.80
2018-03-04T11:34:07.531Z,6.90
2018-03-04T11:36:34.556Z,7.70
2018-03-04T11:39:00.884Z,7.70
2018-03-04T11:41:27.173Z,8.10
2018-03-04T11:43:54.208Z,8.60
2018-03-04T11:46:20.544Z,8.60
2018-03-04T11:48:46.837Z,8.40
2018-03-04T11:51:13.172Z,8.50
2018-03-04T11:53:40.340Z,8.30
2018-03-04T11:56:07.376Z,8.30
2018-03-04T11:58:33.656Z,8.20
2018-03-04T12:01:00.097Z,8.50
2018-03-04T12:03:26.404Z,8.90
2018-03-04T12:05:52.720Z,9.40
2018-03-04T12:08:19.064Z,9.00
2018-03-04T12:10:45.422Z,9.20
2018-03-04T12:13:11.788Z,9.20
2018-03-04T12:15:39.181Z,9.80
2018-03-04T12:18:08.856Z,9.80
2018-03-04T12:20:35.316Z,9.90
2018-03-04T12:23:02.024Z,9.80
2018-03-04T12:25:28.305Z,10.00
2018-03-04T12:27:55.368Z,10.70
2018-03-04T12:30:23.128Z,10.60
2018-03-04T12:32:49.428Z,10.70
2018-03-04T12:35:15.730Z,10.60
2018-03-04T12:37:42.116Z,10.70
2018-03-04T12:40:08.466Z,10.80
2018-03-04T12:42:34.748Z,11.00
2018-03-04T12:45:01.105Z,11.20
2018-03-04T12:47:27.393Z,11.40
2018-03-04T12:49:53.708Z,11.50
2018-03-04T12:52:20.792Z,11.70
2018-03-04T12:54:47.163Z,11.70
2018-03-04T12:57:14.233Z,11.70
2018-03-04T12:59:40.566Z,11.70
2018-03-04T13:02:06.864Z,11.40
2018-03-04T13:04:33.180Z,11.40
2018-03-04T13:06:59.625Z,11.30
2018-03-04T13:09:26.687Z,11.20
2018-03-04T13:11:52.975Z,11.10
2018-03-04T13:14:19.405Z,11.00
2018-03-04T13:16:46.475Z,10.80
2018-03-04T13:19:12.784Z,10.80
2018-03-04T13:21:39.193Z,10.70
2018-03-04T13:24:05.485Z,10.60
2018-03-04T13:26:32.574Z,10.70
2018-03-04T13:28:59.212Z,10.60
2018-03-04T13:31:26.579Z,10.90
2018-03-04T13:33:52.864Z,11.20
2018-03-04T13:36:22.540Z,11.30
2018-03-04T13:38:48.822Z,11.30
2018-03-04T13:41:15.186Z,11.20
2018-03-04T13:43:42.654Z,11.00
2018-03-04T13:46:08.980Z,11.10
2018-03-04T13:48:35.263Z,11.20
2018-03-04T13:51:02.746Z,11.20
2018-03-04T13:53:29.056Z,11.10
2018-03-04T13:55:55.477Z,11.00
2018-03-04T13:58:21.803Z,11.00
2018-03-04T14:00:48.189Z,10.90
2018-03-04T14:03:18.610Z,10.70
2018-03-04T14:05:44.997Z,10.70
2018-03-04T14:08:12.051Z,10.40
2018-03-04T14:10:39.091Z,10.40
2018-03-04T14:13:05.508Z,10.40
2018-03-04T14:15:32.866Z,10.40
2018-03-04T14:17:59.156Z,10.50
2018-03-04T14:20:25.492Z,10.50
2018-03-04T14:22:51.789Z,10.50
2018-03-04T14:25:18.884Z,10.60
2018-03-04T14:27:45.548Z,10.60
2018-03-04T14:30:11.875Z,10.60
2018-03-04T14:32:38.256Z,10.50
2018-03-04T14:35:05.366Z,10.50
2018-03-04T14:37:31.836Z,10.50
2018-03-04T14:39:58.948Z,10.50
2018-03-04T14:42:25.295Z,10.50
2018-03-04T14:44:51.591Z,10.60
2018-03-04T14:47:17.949Z,10.50
2018-03-04T14:49:45.904Z,10.20
2018-03-04T14:52:12.244Z,10.20
2018-03-04T14:54:38.598Z,10.10
2018-03-04T14:57:04.941Z,10.00
2018-03-04T14:59:31.252Z,9.90
2018-03-04T15:01:57.554Z,9.90
2018-03-04T15:04:24.627Z,9.80
2018-03-04T15:06:50.923Z,9.80
2018-03-04T15:09:17.367Z,9.80
2018-03-04T15:11:47.176Z,9.70
2018-03-04T15:14:13.595Z,9.70
2018-03-04T15:16:39.896Z,9.70
2018-03-04T15:19:07.235Z,9.60
2018-03-04T15:21:33.639Z,9.50
2018-03-04T15:24:00.093Z,9.30
2018-03-04T15:26:26.425Z,9.20
2018-03-04T15:28:53.719Z,9.10
2018-03-04T15:31:20.024Z,9.00
2018-03-04T15:33:47.426Z,8.70
2018-03-04T15:36:13.726Z,8.70
2018-03-04T15:38:40.069Z,8.70
2018-03-04T15:41:07.629Z,8.70
2018-03-04T15:43:34.700Z,8.80
2018-03-04T15:46:01.023Z,8.80
2018-03-04T15:48:27.367Z,8.80
2018-03-04T15:50:53.664Z,8.80
2018-03-04T15:53:20.048Z,8.60
2018-03-04T15:55:46.404Z,8.30
2018-03-04T15:58:12.725Z,8.30
2018-03-04T16:00:39.159Z,8.30
2018-03-04T16:03:05.510Z,8.10
2018-03-04T16:05:31.857Z,8.10
2018-03-04T16:07:58.153Z,8.10
2018-03-04T16:10:25.460Z,8.10
2018-03-04T16:12:52.946Z,8.10
2018-03-04T16:15:19.243Z,8.10
2018-03-04T16:17:58.717Z,7.90
2018-03-04T16:20:25.063Z,7.80
2018-03-04T16:22:52.120Z,7.80
2018-03-04T16:25:18.560Z,7.80
2018-03-04T16:27:44.902Z,7.70
2018-03-04T16:30:11.236Z,7.60
2018-03-04T16:32:37.612Z,7.50
2018-03-04T16:35:04.692Z,7.40
2018-03-04T16:37:30.979Z,7.30
2018-03-04T16:39:57.440Z,7.20
2018-03-04T16:42:23.740Z,7.10
2018-03-04T16:44:50.772Z,6.80
2018-03-04T16:47:17.236Z,6.70
2018-03-04T16:49:43.574Z,6.90
2018-03-04T16:52:10.055Z,6.90
2018-03-04T16:54:36.451Z,6.90
2018-03-04T16:57:02.799Z,6.80
2018-03-04T16:59:29.388Z,6.60
2018-03-04T17:01:56.044Z,6.60
2018-03-04T17:04:22.328Z,6.50
2018-03-04T17:06:48.628Z,6.60
2018-03-04T17:09:15.148Z,6.60
2018-03-04T17:11:41.565Z,6.60
2018-03-04T17:14:08.002Z,6.50
2018-03-04T17:16:34.341Z,6.40
2018-03-04T17:19:00.632Z,6.50
2018-03-04T17:21:27.672Z,6.50
2018-03-04T17:23:54.067Z,6.50
2018-03-04T17:26:20.514Z,6.60
2018-03-04T17:28:46.828Z,6.30
2018-03-04T17:31:14.004Z,6.30
2018-03-04T17:33:41.088Z,5.90
2018-03-04T17:36:07.498Z,5.90
2018-03-04T17:38:33.893Z,6.00
2018-03-04T17:41:00.231Z,6.20
2018-03-04T17:43:26.607Z,6.50
2018-03-04T17:45:53.032Z,6.60
2018-03-04T17:48:19.329Z,6.40
2018-03-04T17:50:46.362Z,6.40
2018-03-04T17:53:13.455Z,6.10
2018-03-04T17:55:39.871Z,6.10
2018-03-04T17:58:06.390Z,6.10
2018-03-04T18:00:32.760Z,6.20
2018-03-04T18:02:59.067Z,6.00
2018-03-04T18:05:25.469Z,6.10
2018-03-04T18:07:52.551Z,6.20
2018-03-04T18:10:18.958Z,6.20
2018-03-04T18:12:45.268Z,6.40
2018-03-04T18:15:11.800Z,6.30
2018-03-04T18:17:38.250Z,6.20
2018-03-04T18:20:04.612Z,6.10
2018-03-04T18:22:30.977Z,6.00
2018-03-04T18:24:57.282Z,6.00
2018-03-04T18:27:23.622Z,6.30
2018-03-04T18:29:51.196Z,6.40
2018-03-04T18:32:17.561Z,6.40
2018-03-04T18:34:43.884Z,6.30
2018-03-04T18:37:10.239Z,6.20
2018-03-04T18:39:36.608Z,6.10
2018-03-04T18:42:02.936Z,6.00
2018-03-04T18:44:29.368Z,6.00
2018-03-04T18:46:55.672Z,5.70
2018-03-04T18:49:22.064Z,5.60
2018-03-04T18:51:48.569Z,5.50
2018-03-04T18:54:14.908Z,5.30
2018-03-04T18:56:41.226Z,5.10
2018-03-04T18:59:07.804Z,5.10
2018-03-04T19:01:34.121Z,5.20
2018-03-04T19:04:00.407Z,5.20
2018-03-04T19:06:28.626Z,5.40
2018-03-04T19:08:54.936Z,5.30
2018-03-04T19:11:21.276Z,5.20
2018-03-04T19:13:47.731Z,5.30
2018-03-04T19:16:14.056Z,5.40
2018-03-04T19:18:40.343Z,5.50
2018-03-04T19:21:06.836Z,5.60
2018-03-04T19:23:33.158Z,5.70
2018-03-04T19:26:00.237Z,5.70
2018-03-04T19:28:27.460Z,5.80
2018-03-04T19:30:53.803Z,5.60
2018-03-04T19:33:20.218Z,5.80
2018-03-04T19:35:46.561Z,5.80
2018-03-04T19:38:12.901Z,5.80
2018-03-04T19:40:40.020Z,6.00
2018-03-04T19:43:07.520Z,5.90
2018-03-04T19:45:33.900Z,5.90
2018-03-04T19:48:00.213Z,6.00
2018-03-04T19:50:27.872Z,6.00
2018-03-04T19:52:54.980Z,6.10
2018-03-04T19:55:21.389Z,6.10
2018-03-04T19:57:47.882Z,6.20
2018-03-04T20:00:21.960Z,6.20
2018-03-04T20:02:51.659Z,6.20
2018-03-04T20:05:19.824Z,6.30
2018-03-04T20:07:46.349Z,6.30
2018-03-04T20:10:12.730Z,6.50
2018-03-04T20:12:39.081Z,6.40
2018-03-04T20:15:06.159Z,6.40
2018-03-04T20:17:36.852Z,6.30
2018-03-04T20:20:07.187Z,6.20
2018-03-04T20:22:34.360Z,6.30
2018-03-04T20:25:00.765Z,6.30
2018-03-04T20:27:28.127Z,6.30
2018-03-04T20:29:56.865Z,6.30
2018-03-04T20:32:31.336Z,6.20
2018-03-04T20:34:57.649Z,6.10
2018-03-04T20:37:23.989Z,6.00
2018-03-04T20:39:50.388Z,6.00
2018-03-04T20:42:17.597Z,5.90
2018-03-04T20:44:46.113Z,5.90
2018-03-04T20:47:13.274Z,5.80
2018-03-04T20:49:41.340Z,5.70
2018-03-04T20:52:08.696Z,5.70
2018-03-04T20:54:36.089Z,5.70
2018-03-04T20:57:02.633Z,5.70
2018-03-04T20:59:28.985Z,5.80
2018-03-04T21:02:06.538Z,5.80
2018-03-04T21:04:33.451Z,5.80
2018-03-04T21:07:01.249Z,5.80
2018-03-04T21:09:27.640Z,5.70
2018-03-04T21:11:54.977Z,5.80
2018-03-04T21:14:21.798Z,5.70
2018-03-04T21:16:49.541Z,5.80
2018-03-04T21:19:16.227Z,5.80
2018-03-04T21:21:42.544Z,5.80
2018-03-04T21:24:09.053Z,5.80
2018-03-04T21:26:35.337Z,5.80
2018-03-04T21:29:01.704Z,5.70
2018-03-04T21:31:30.214Z,5.60
2018-03-04T21:33:56.865Z,5.70
2018-03-04T21:36:23.260Z,5.70
2018-03-04T21:38:49.704Z,5.80
2018-03-04T21:41:15.989Z,5.80
2018-03-04T21:43:42.275Z,5.70
2018-03-04T21:46:08.703Z,5.80
2018-03-04T21:48:35.116Z,5.80
2018-03-04T21:51:01.560Z,5.80
2018-03-04T21:53:28.267Z,5.80
2018-03-04T21:55:54.629Z,5.80
2018-03-04T21:58:20.973Z,5.90
2018-03-04T22:00:47.695Z,5.90
2018-03-04T22:03:14.066Z,5.80
2018-03-04T22:05:40.401Z,5.80
2018-03-04T22:08:06.753Z,5.80
2018-03-04T22:10:33.242Z,5.80
2018-03-04T22:12:59.730Z,5.80
2018-03-04T22:15:26.101Z,5.80
2018-03-04T22:17:53.944Z,5.80
2018-03-04T22:20:20.245Z,5.70
2018-03-04T22:22:46.680Z,5.60
2018-03-04T22:25:13.036Z,5.50
2018-03-04T22:27:40.168Z,5.30
2018-03-04T22:30:06.625Z,5.30
2018-03-04T22:32:33.000Z,5.30
2018-03-04T22:34:59.415Z,5.20
2018-03-04T22:37:25.782Z,5.20
2018-03-04T22:39:52.872Z,5.10
2018-03-04T22:42:19.413Z,5.10
2018-03-04T22:44:47.899Z,5.20
2018-03-04T22:47:15.932Z,5.00
2018-03-04T22:49:42.228Z,5.00
2018-03-04T22:52:09.416Z,5.00
2018-03-04T22:54:35.807Z,5.00
2018-03-04T22:57:02.859Z,5.10
2018-03-04T22:59:29.240Z,5.00
2018-03-04T23:01:55.574Z,5.00
2018-03-04T23:04:21.944Z,5.00
2018-03-04T23:06:48.344Z,5.00
2018-03-04T23:09:14.649Z,5.00
2018-03-04T23:11:40.971Z,5.10
2018-03-04T23:14:07.392Z,5.00
2018-03-04T23:16:37.478Z,5.10
2018-03-04T23:19:03.818Z,5.10
2018-03-04T23:21:30.270Z,5.10
2018-03-04T23:23:56.572Z,5.10
2018-03-04T23:26:22.859Z,5.20
2018-03-04T23:28:49.308Z,5.20
2018-03-04T23:31:15.688Z,5.30
2018-03-04T23:33:43.123Z,5.30
2018-03-04T23:36:09.476Z,5.30
2018-03-04T23:38:35.767Z,5.30
2018-03-04T23:41:02.072Z,5.30
2018-03-04T23:43:28.440Z,5.30
2018-03-04T23:45:54.779Z,5.30
2018-03-04T23:48:21.828Z,5.20
2018-03-04T23:50:49.027Z,5.10
2018-03-04T23:53:15.472Z,5.10
2018-03-04T23:55:41.950Z,5.00
2018-03-04T23:58:08.283Z,5.10
